Time;durP1;ratioP1;P1;durP2;ratioP2;P2;SDS_P1;SDS_P2;PMS_P1;PMS_P2;Temp;Humidity;BMP_temperature;BMP_pressure;BME280_temperature;BME280_humidity;BME280_pressure;Samples;Min_cycle;Max_cycle;Signal;HPM_P1;HPM_P2
2023/10/09 00:00:50;;;;;;;28.27;20.58;;;;;;;11.32;100.00;102035.66;6207930;23;20424;-80
2023/10/09 00:03:13;;;;;;;;;;;;;;;11.34;100.00;102035.59;6186530;23;20036;-83
2023/10/09 00:05:45;;;;;;;28.95;20.77;;;;;;;11.32;100.00;102038.25;6185571;23;19912;-82
2023/10/09 00:08:30;;;;;;;28.52;21.33;;;;;;;11.32;100.00;102040.00;6207828;23;20032;-82
2023/10/09 00:11:16;;;;;;;32.63;21.58;;;;;;;11.37;100.00;102032.84;6185337;23;19997;-82
2023/10/09 00:13:52;;;;;;;30.45;21.90;;;;;;;11.36;100.00;102034.59;6185314;23;20007;-75
2023/10/09 00:16:32;;;;;;;30.15;21.90;;;;;;;11.36;100.00;102029.44;6208277;23;20038;-83
2023/10/09 00:19:13;;;;;;;32.08;24.00;;;;;;;11.55;100.00;102024.22;6245794;23;20000;-82
2023/10/09 00:21:41;;;;;;;34.38;24.23;;;;;;;11.62;100.00;102023.03;6246098;23;20004;-83
2023/10/09 00:24:13;;;;;;;32.55;24.58;;;;;;;11.66;100.00;102006.44;6245811;23;20004;-81
2023/10/09 00:26:45;;;;;;;34.67;25.45;;;;;;;11.70;100.00;102012.28;6245907;23;20075;-81
2023/10/09 00:29:33;;;;;;;33.05;24.70;;;;;;;11.75;100.00;102012.91;6246047;23;20006;-82
2023/10/09 00:32:13;;;;;;;41.17;25.45;;;;;;;11.83;100.00;102004.81;6269476;23;20004;-76
2023/10/09 00:34:41;;;;;;;38.45;26.23;;;;;;;11.93;100.00;101996.50;6259409;23;20028;-80
2023/10/09 00:37:16;;;;;;;42.70;29.35;;;;;;;11.85;100.00;101954.63;6247490;23;20027;-80
2023/10/09 00:39:45;;;;;;;40.30;28.38;;;;;;;12.27;100.00;102003.38;6246365;23;20031;-80
2023/10/09 00:42:12;;;;;;;43.05;29.13;;;;;;;12.35;100.00;101990.06;6246038;23;20099;-83
2023/10/09 00:44:42;;;;;;;43.55;31.77;;;;;;;12.43;100.00;101990.50;6246451;23;20057;-83
2023/10/09 00:47:22;;;;;;;42.65;28.35;;;;;;;12.53;100.00;102003.81;6246433;23;19999;-81
2023/10/09 00:49:54;;;;;;;39.83;29.27;;;;;;;12.50;100.00;101999.63;6245742;23;20010;-84
2023/10/09 00:52:31;;;;;;;47.15;29.95;;;;;;;12.64;100.00;102010.09;6245947;23;20046;-83
2023/10/09 00:55:00;;;;;;;40.88;28.90;;;;;;;12.74;100.00;102005.25;6245147;23;20424;-76
2023/10/09 00:57:28;;;;;;;41.20;29.92;;;;;;;12.77;100.00;101999.91;6245045;23;20008;-82
2023/10/09 00:59:59;;;;;;;41.35;29.83;;;;;;;12.89;100.00;102011.41;6245605;23;20007;-82
2023/10/09 01:02:35;;;;;;;40.95;29.13;;;;;;;12.95;100.00;102015.41;6245593;23;20000;-81
2023/10/09 01:05:11;;;;;;;36.40;27.35;;;;;;;12.97;100.00;102005.78;6245185;23;20054;-83
2023/10/09 01:07:44;;;;;;;37.45;27.77;;;;;;;12.88;100.00;101988.94;6242686;23;20011;-79
2023/10/09 01:10:10;;;;;;;35.20;27.23;;;;;;;13.01;100.00;102007.31;6245271;23;20004;-77
2023/10/09 01:12:42;;;;;;;36.10;27.45;;;;;;;13.04;100.00;102000.19;6245348;23;20000;-78
2023/10/09 01:15:08;;;;;;;35.47;25.98;;;;;;;13.07;100.00;102004.34;6245481;23;20000;-83
2023/10/09 01:17:36;;;;;;;35.45;26.10;;;;;;;13.12;100.00;102004.94;6244940;23;20016;-83
2023/10/09 01:20:14;;;;;;;36.65;26.23;;;;;;;13.15;100.00;101992.66;6243433;23;20008;-84
2023/10/09 01:22:41;;;;;;;32.60;25.23;;;;;;;13.07;100.00;101978.41;6245382;23;20426;-78
2023/10/09 01:25:07;;;;;;;34.35;25.65;;;;;;;12.88;100.00;101952.66;6245083;23;20027;-81
2023/10/09 01:27:32;;;;;;;37.05;24.25;;;;;;;13.02;100.00;101981.28;6244999;23;20442;-84
2023/10/09 01:29:59;;;;;;;31.13;24.65;;;;;;;12.94;100.00;101962.72;6245154;23;20047;-83
2023/10/09 01:32:26;;;;;;;32.97;25.35;;;;;;;13.20;100.00;102002.81;6245224;23;20008;-83
2023/10/09 01:34:54;;;;;;;29.83;23.02;;;;;;;12.98;100.00;101963.38;6245563;23;20317;-79
2023/10/09 01:37:30;;;;;;;30.40;23.73;;;;;;;13.28;100.00;102005.81;6245443;23;20303;-79
2023/10/09 01:39:58;;;;;;;30.33;22.80;;;;;;;13.29;100.00;101999.72;6245052;23;20410;-83
2023/10/09 01:42:34;;;;;;;32.63;23.27;;;;;;;13.15;100.00;101968.47;6244945;23;20030;-84
2023/10/09 01:45:09;;;;;;;30.13;23.33;;;;;;;13.22;100.00;101982.81;6245180;23;20072;-79
2023/10/09 01:47:37;;;;;;;30.90;22.58;;;;;;;13.32;100.00;101996.94;6245120;23;20323;-83
2023/10/09 01:50:11;;;;;;;31.40;21.80;;;;;;;13.33;100.00;102003.78;6245136;23;20061;-76
2023/10/09 01:52:37;;;;;;;28.83;22.90;;;;;;;13.33;100.00;102001.19;6242341;23;20004;-82
2023/10/09 01:55:27;;;;;;;32.63;22.02;;;;;;;13.16;100.00;101980.50;6245247;23;20000;-83
2023/10/09 01:57:48;;;;;;;29.08;22.42;;;;;;;13.30;100.00;101991.00;6244680;23;20016;-84
2023/10/09 02:00:22;;;;;;;30.85;22.42;;;;;;;13.20;100.00;101969.09;6245240;23;20026;-81
2023/10/09 02:02:48;;;;;;;27.65;21.63;;;;;;;13.36;100.00;101984.63;6245206;23;20500;-82
2023/10/09 02:07:43;;;;;;;29.27;21.50;;;;;;;13.39;100.00;101995.69;6228692;23;20036;-83
2023/10/09 02:10:21;;;;;;;27.95;22.40;;;;;;;13.10;100.00;101948.00;6245380;23;20326;-82
2023/10/09 02:12:51;;;;;;;29.80;21.73;;;;;;;13.34;100.00;101978.69;6245001;23;20325;-76
2023/10/09 02:15:40;;;;;;;25.55;21.15;;;;;;;13.43;100.00;101991.16;6244783;23;20004;-83
2023/10/09 02:18:16;;;;;;;28.45;21.25;;;;;;;13.46;100.00;101985.78;6246785;23;20546;-82
2023/10/09 02:20:41;;;;;;;28.48;21.75;;;;;;;13.38;100.00;101956.84;6246803;23;20008;-82
2023/10/09 02:23:12;;;;;;;28.40;21.30;;;;;;;13.45;100.00;101969.38;6247250;23;20088;-83
2023/10/09 02:25:43;;;;;;;;;;;;;;;13.49;100.00;101980.44;6245980;23;20049;-83
2023/10/09 02:28:08;;;;;;;29.25;22.15;;;;;;;13.49;100.00;101977.84;6246680;23;19927;-83
2023/10/09 02:30:34;;;;;;;29.83;22.33;;;;;;;13.51;100.00;101968.19;6244147;23;20016;-83
2023/10/09 02:33:08;;;;;;;28.48;21.77;;;;;;;13.53;100.00;101957.72;6247060;23;20048;-83
2023/10/09 02:35:42;;;;;;;33.00;23.27;;;;;;;13.58;100.00;101958.31;6246738;23;20414;-83
2023/10/09 02:38:10;;;;;;;30.23;22.83;;;;;;;13.55;100.00;101950.69;6246970;23;20095;-81
2023/10/09 02:41:00;;;;;;;31.13;22.77;;;;;;;13.55;100.00;101951.50;6244301;23;20487;-82
2023/10/09 02:43:26;;;;;;;30.70;22.58;;;;;;;13.56;100.00;101937.59;6246190;23;20004;-83
2023/10/09 02:45:52;;;;;;;30.58;22.98;;;;;;;13.58;100.00;101942.75;6246728;23;20460;-81
2023/10/09 02:48:19;;;;;;;33.88;22.33;;;;;;;13.57;100.00;101947.09;6246464;23;20071;-82
2023/10/09 02:50:46;;;;;;;29.98;23.08;;;;;;;13.55;100.00;101950.69;6245064;23;20004;-82
2023/10/09 02:53:18;;;;;;;29.10;22.80;;;;;;;13.42;100.00;101938.41;6246715;23;20004;-81
2023/10/09 02:56:02;;;;;;;31.77;23.27;;;;;;;13.51;100.00;101956.97;6246841;23;20007;-78
2023/10/09 02:58:31;;;;;;;33.70;23.45;;;;;;;13.52;100.00;101964.66;6246503;23;20062;-82
2023/10/09 03:00:57;;;;;;;34.33;24.50;;;;;;;13.45;100.00;101940.81;6246366;23;20004;-78
2023/10/09 03:03:25;;;;;;;30.02;24.05;;;;;;;13.53;100.00;101952.53;6246303;23;20012;-82
2023/10/09 03:05:50;;;;;;;32.35;23.73;;;;;;;13.53;100.00;101942.16;6244855;23;20022;-77
2023/10/09 03:08:19;;;;;;;30.95;23.75;;;;;;;13.53;100.00;101950.78;6244808;23;20024;-81
2023/10/09 03:10:44;;;;;;;33.05;23.00;;;;;;;13.55;100.00;101942.88;6246444;23;20008;-81
2023/10/09 03:13:09;;;;;;;30.83;24.02;;;;;;;13.52;100.00;101941.31;6246708;23;20028;-83
2023/10/09 03:15:35;;;;;;;31.42;23.52;;;;;;;13.54;100.00;101943.81;6246497;23;20066;-81
2023/10/09 03:18:02;;;;;;;27.50;23.30;;;;;;;13.44;100.00;101917.56;6246300;23;20015;-80
2023/10/09 03:20:29;;;;;;;30.27;22.98;;;;;;;13.51;100.00;101925.84;6246056;23;20000;-83
2023/10/09 03:22:55;;;;;;;31.23;22.77;;;;;;;13.51;100.00;101920.66;6246286;23;20418;-82
2023/10/09 03:25:21;;;;;;;27.80;24.08;;;;;;;13.55;100.00;101924.72;6246221;23;20004;-80
2023/10/09 03:27:46;;;;;;;29.52;22.88;;;;;;;13.53;100.00;101930.00;6245897;23;20008;-83
2023/10/09 03:30:23;;;;;;;30.05;23.00;;;;;;;13.53;100.00;101930.00;6246102;23;20322;-76
2023/10/09 03:32:53;;;;;;;29.30;23.17;;;;;;;13.52;100.00;101920.56;6219350;23;20035;-81
2023/10/09 03:35:33;;;;;;;30.48;22.80;;;;;;;13.53;100.00;101906.66;6246694;23;20004;-81
2023/10/09 03:38:11;;;;;;;31.48;22.90;;;;;;;13.45;100.00;101899.31;6246237;23;20008;-83
2023/10/09 03:40:39;;;;;;;31.40;23.13;;;;;;;13.17;100.00;101849.91;6246677;23;20079;-75
2023/10/09 03:43:04;;;;;;;29.35;22.33;;;;;;;13.38;100.00;101884.22;6258324;23;20016;-81
2023/10/09 03:45:31;;;;;;;34.90;22.83;;;;;;;13.49;100.00;101908.59;6266732;23;20011;-76
2023/10/09 03:50:43;;;;;;;30.98;24.13;;;;;;;13.53;100.00;101914.44;6154586;23;20084;-80
2023/10/09 03:53:11;;;;;;;31.45;23.58;;;;;;;13.54;100.00;101930.84;6154042;23;20032;-83
2023/10/09 03:55:40;;;;;;;28.17;23.00;;;;;;;13.56;100.00;101919.44;6153890;23;20006;-78
2023/10/09 03:58:13;;;;;;;29.35;23.25;;;;;;;13.58;100.00;101914.19;6153398;23;20067;-81
2023/10/09 04:00:45;;;;;;;31.17;22.92;;;;;;;13.42;100.00;101885.69;6153507;23;20005;-83
2023/10/09 04:03:11;;;;;;;;;;;;;;;13.58;100.00;101917.63;6154165;23;20013;-83
2023/10/09 04:05:37;;;;;;;30.27;22.63;;;;;;;13.58;100.00;101907.22;6153556;23;19908;-80
2023/10/09 04:08:11;;;;;;;28.67;22.55;;;;;;;13.59;100.00;101908.06;6153478;23;20427;-83
2023/10/09 04:10:44;;;;;;;29.33;23.38;;;;;;;13.46;100.00;101882.81;6153440;23;20012;-82
2023/10/09 04:13:12;;;;;;;35.40;24.60;;;;;;;13.59;100.00;101900.28;6153116;23;20455;-79
2023/10/09 04:15:38;;;;;;;34.03;23.60;;;;;;;13.56;100.00;101882.28;6152952;23;20013;-79
2023/10/09 04:18:06;;;;;;;30.17;23.13;;;;;;;13.49;100.00;101868.84;6153087;23;20064;-80
2023/10/09 04:23:05;;;;;;;31.98;23.70;;;;;;;13.63;100.00;101892.22;6163370;23;20013;-83
2023/10/09 04:25:41;;;;;;;;;;;;;;;13.64;100.00;101900.84;6153867;23;20006;-82
2023/10/09 04:28:18;;;;;;;30.45;22.67;;;;;;;13.56;100.00;101883.09;6211469;23;19915;-78
2023/10/09 04:30:53;;;;;;;28.33;21.63;;;;;;;13.51;100.00;101890.34;6245652;23;20011;-78
2023/10/09 04:33:29;;;;;;;28.30;21.90;;;;;;;13.53;100.00;101898.88;6244464;23;20414;-75
2023/10/09 04:39:15;;;;;;;27.58;21.67;;;;;;;13.60;100.00;101927.91;6256315;23;20008;-80
2023/10/09 04:44:24;;;;;;;31.73;22.60;;;;;;;13.60;100.00;101918.34;6254758;23;20012;-79
2023/10/09 05:02:56;;;;;;;29.48;21.67;;;;;;;13.76;100.00;101944.25;6255695;23;20381;-80
2023/10/09 05:11:06;;;;;;;30.35;22.17;;;;;;;13.75;100.00;101929.59;6123426;23;20014;-80
2023/10/09 05:13:57;;;;;;;27.58;21.67;;;;;;;13.74;100.00;101923.56;6098861;23;20009;-75
2023/10/09 05:16:29;;;;;;;28.17;22.33;;;;;;;13.62;100.00;101893.13;6122530;23;20033;-82
2023/10/09 05:19:08;;;;;;;27.83;22.00;;;;;;;13.70;100.00;101924.69;6123163;23;20017;-82
2023/10/09 05:26:50;;;;;;;31.70;22.30;;;;;;;13.72;100.00;101935.81;6132999;23;20018;-83
2023/10/09 05:31:57;;;;;;;29.00;23.30;;;;;;;13.72;100.00;101955.75;6122885;23;20380;-83
2023/10/09 05:34:33;;;;;;;29.85;21.85;;;;;;;13.67;100.00;101948.22;6123195;23;20009;-82
2023/10/09 05:37:16;;;;;;;30.35;22.58;;;;;;;13.67;100.00;101944.81;6098308;23;20026;-82
2023/10/09 05:39:43;;;;;;;30.33;22.88;;;;;;;13.62;100.00;101944.22;6123433;23;20042;-83
2023/10/09 05:42:17;;;;;;;28.63;22.65;;;;;;;13.72;100.00;101963.53;6123343;23;20060;-77
2023/10/09 05:45:44;;;;;;;27.30;22.15;;;;;;;13.70;100.00;101945.44;6123059;23;20010;-80
2023/10/09 05:47:53;;;;;;;29.52;23.23;;;;;;;13.74;100.00;101946.94;6172109;23;20012;-79
2023/10/09 06:03:54;;;;;;;31.85;22.85;;;;;;;13.84;100.00;101982.75;6245560;23;20078;-79
2023/10/09 06:06:44;;;;;;;30.98;23.30;;;;;;;13.59;100.00;101950.44;6219453;23;20054;-76
2023/10/09 06:09:28;;;;;;;31.70;23.65;;;;;;;13.87;100.00;101974.78;6245274;23;20066;-76
2023/10/09 06:17:01;;;;;;;31.25;23.75;;;;;;;13.84;100.00;101969.75;6249358;23;20016;-75
2023/10/09 06:19:31;;;;;;;33.92;24.85;;;;;;;13.83;100.00;101966.31;6247795;23;20012;-77
2023/10/09 06:24:42;;;;;;;33.83;24.65;;;;;;;13.93;100.00;101967.47;6247351;23;20507;-74
2023/10/09 06:27:24;;;;;;;34.15;23.50;;;;;;;13.96;100.00;101982.88;6246885;23;20000;-82
2023/10/09 06:34:57;;;;;;;32.33;23.67;;;;;;;14.02;100.00;101994.66;6247103;23;20008;-77
2023/10/09 06:42:34;;;;;;;33.90;24.77;;;;;;;13.96;100.00;101962.09;6255472;23;20031;-78
2023/10/09 06:45:11;;;;;;;35.22;24.73;;;;;;;14.06;100.00;101975.38;6246636;23;20000;-81
2023/10/09 06:47:53;;;;;;;32.97;24.83;;;;;;;14.06;100.00;101965.81;6246737;23;20433;-80
2023/10/09 06:56:04;;;;;;;35.58;26.23;;;;;;;14.14;100.00;101957.56;6268042;23;20004;-83
2023/10/09 06:58:41;;;;;;;32.45;24.80;;;;;;;14.12;100.00;101937.81;6256146;23;20004;-82
2023/10/09 07:01:25;;;;;;;31.52;24.33;;;;;;;14.20;100.00;101951.16;6244373;23;20008;-78
2023/10/09 07:03:54;;;;;;;35.83;25.42;;;;;;;14.26;100.00;101949.03;6247490;23;20004;-82
2023/10/09 07:06:23;;;;;;;31.52;24.85;;;;;;;14.34;100.00;101943.34;6247692;23;20365;-79
2023/10/09 07:15:01;;;;;;;31.95;24.58;;;;;;;14.50;100.00;101904.31;6257570;23;20342;-78
2023/10/09 07:20:15;;;;;;;32.88;23.58;;;;;;;14.61;100.00;101944.28;6247112;23;20016;-78
2023/10/09 07:22:56;;;;;;;31.60;24.95;;;;;;;14.64;100.00;101957.09;6246639;23;20027;-78
2023/10/09 07:25:29;;;;;;;31.00;23.20;;;;;;;14.65;100.00;101978.75;6246971;23;20079;-81
2023/10/09 07:27:55;;;;;;;32.17;24.13;;;;;;;14.73;100.00;101984.28;6246667;23;20016;-80
2023/10/09 07:35:47;;;;;;;30.93;22.43;;;;;;;14.74;100.00;101993.75;6256725;23;20008;-82
2023/10/09 07:38:22;;;;;;;30.08;23.08;;;;;;;14.57;100.00;101992.22;6246267;23;20008;-77
2023/10/09 07:43:39;;;;;;;28.88;22.67;;;;;;;14.71;100.00;102016.53;6246212;23;20327;-79
2023/10/09 07:48:52;;;;;;;30.83;23.92;;;;;;;14.62;100.00;102005.75;6245920;23;20354;-81
2023/10/09 07:51:22;;;;;;;32.38;22.92;;;;;;;14.75;100.00;102005.00;6246053;23;20004;-80
2023/10/09 07:54:07;;;;;;;33.05;23.33;;;;;;;14.75;100.00;101999.78;6245847;23;20011;-80
2023/10/09 07:56:45;;;;;;;34.00;23.40;;;;;;;14.72;100.00;101981.78;6244467;23;20075;-82
2023/10/09 07:59:17;;;;;;;30.70;23.30;;;;;;;14.78;100.00;101968.44;6245871;23;20411;-77
2023/10/09 08:01:54;;;;;;;28.23;22.42;;;;;;;14.82;100.00;101964.69;6245777;23;20007;-80
2023/10/09 08:04:39;;;;;;;29.90;23.13;;;;;;;14.81;100.00;101989.03;6245698;23;20004;-75
2023/10/09 08:07:09;;;;;;;29.77;23.52;;;;;;;14.91;100.00;101982.31;6246193;23;20004;-76
2023/10/09 08:09:48;;;;;;;33.15;22.45;;;;;;;14.81;100.00;101984.66;6246031;23;20126;-78
2023/10/09 08:17:53;;;;;;;33.17;23.63;;;;;;;15.12;100.00;101960.13;6152790;23;20021;-78
2023/10/09 08:20:26;;;;;;;30.90;23.70;;;;;;;15.27;100.00;101976.56;6128605;23;20025;-79
2023/10/09 08:22:55;;;;;;;31.63;23.85;;;;;;;15.34;100.00;101969.16;6151833;23;20081;-81
2023/10/09 08:25:28;;;;;;;28.80;23.08;;;;;;;15.49;100.00;101965.56;6152619;23;20046;-78
2023/10/09 08:30:49;;;;;;;33.50;23.95;;;;;;;15.68;100.00;101966.06;6162975;23;20009;-74
2023/10/09 08:35:51;;;;;;;31.10;23.10;;;;;;;15.84;100.00;101959.84;6156153;23;20009;-80
2023/10/09 08:38:26;;;;;;;29.25;22.00;;;;;;;15.94;100.00;101963.50;6152038;23;20394;-80
2023/10/09 08:40:58;;;;;;;28.88;21.70;;;;;;;16.00;100.00;101945.66;6152509;23;20010;-76
2023/10/09 08:43:23;;;;;;;27.70;21.75;;;;;;;16.15;100.00;101958.59;6152837;23;20006;-78
2023/10/09 08:45:53;;;;;;;32.35;22.05;;;;;;;16.22;100.00;101967.66;6153305;23;20339;-80
2023/10/09 08:48:21;;;;;;;30.17;21.75;;;;;;;16.26;100.00;101961.28;6151890;23;20013;-81
2023/10/09 08:50:49;;;;;;;33.05;22.20;;;;;;;16.34;100.00;101964.22;6152238;23;20010;-76
2023/10/09 08:53:16;;;;;;;27.65;21.67;;;;;;;16.45;100.00;101976.50;6152845;23;20010;-75
2023/10/09 08:55:43;;;;;;;29.65;20.65;;;;;;;16.47;100.00;101966.78;6233150;23;20014;-82
2023/10/09 08:58:20;;;;;;;27.90;21.10;;;;;;;16.61;100.00;101984.91;6245451;23;20418;-73
2023/10/09 09:00:46;;;;;;;24.63;19.67;;;;;;;16.56;100.00;101995.69;6245547;23;20414;-77
2023/10/09 09:03:16;;;;;;;28.20;20.15;;;;;;;16.68;100.00;102003.56;6245283;23;20075;-84
2023/10/09 09:06:02;;;;;;;28.10;20.10;;;;;;;16.97;100.00;102030.25;6245611;23;20004;-80
2023/10/09 09:08:29;;;;;;;31.15;21.30;;;;;;;17.03;100.00;102029.84;6245150;23;20008;-80
2023/10/09 09:11:11;;;;;;;25.17;19.50;;;;;;;17.06;100.00;102020.00;6245548;23;20008;-82
2023/10/09 09:13:50;;;;;;;24.90;19.45;;;;;;;17.30;100.00;102032.22;6245392;23;20027;-79
2023/10/09 09:16:29;;;;;;;30.95;20.70;;;;;;;17.39;100.00;102039.41;6245307;23;20000;-84
2023/10/09 09:19:04;;;;;;;27.10;19.83;;;;;;;17.49;100.00;102043.84;6242763;23;20434;-83
2023/10/09 09:21:37;;;;;;;25.35;19.85;;;;;;;17.55;100.00;102039.13;6245264;23;20011;-77
2023/10/09 09:24:07;;;;;;;26.83;20.33;;;;;;;17.65;100.00;102037.50;6245512;23;20028;-78
2023/10/09 09:26:44;;;;;;;25.05;19.85;;;;;;;17.61;100.00;102018.63;6245290;23;20047;-77
2023/10/09 09:29:11;;;;;;;25.92;19.95;;;;;;;17.55;100.00;102020.84;6245590;23;20000;-83
2023/10/09 09:31:41;;;;;;;28.15;21.05;;;;;;;17.77;100.00;102049.69;6245818;23;20000;-78
2023/10/09 09:34:16;;;;;;;24.63;20.25;;;;;;;17.78;100.00;102054.78;6242526;23;20008;-76
2023/10/09 09:36:55;;;;;;;26.88;20.85;;;;;;;17.81;100.00;102056.38;6244982;23;20087;-83
2023/10/09 09:39:29;;;;;;;26.75;20.65;;;;;;;17.72;100.00;102041.38;6245629;23;20000;-79
2023/10/09 09:41:57;;;;;;;26.80;21.25;;;;;;;17.57;100.00;102025.00;6243731;23;20327;-77
2023/10/09 09:44:25;;;;;;;28.42;20.90;;;;;;;17.87;100.00;102062.91;6245584;23;20000;-77
2023/10/09 09:46:53;;;;;;;24.55;20.52;;;;;;;17.86;100.00;102046.41;6243258;23;20011;-82
2023/10/09 09:49:21;;;;;;;30.85;21.10;;;;;;;18.00;100.00;102068.91;6244733;23;20004;-76
2023/10/09 09:51:47;;;;;;;26.35;20.55;;;;;;;18.04;100.00;102062.50;6245081;23;20030;-78
2023/10/09 09:54:15;;;;;;;28.90;20.50;;;;;;;18.06;100.00;102048.34;6245502;23;20458;-83
2023/10/09 09:56:50;;;;;;;28.08;21.40;;;;;;;18.14;100.00;102049.56;6245365;23;20000;-79
2023/10/09 09:59:21;;;;;;;26.05;20.95;;;;;;;18.27;100.00;102058.97;6245509;23;20007;-79
2023/10/09 10:01:56;;;;;;;;;;;;;;;18.45;100.00;102058.53;6246115;23;20122;-80
2023/10/09 10:04:26;;;;;;;26.33;20.27;;;;;;;18.48;100.00;102069.56;6245125;23;19914;-76
2023/10/09 10:06:55;;;;;;;27.67;20.50;;;;;;;18.54;100.00;102063.88;6245733;23;20034;-80
2023/10/09 10:09:41;;;;;;;28.98;20.45;;;;;;;18.62;100.00;102053.66;6251135;23;20054;-81
2023/10/09 10:12:10;;;;;;;26.85;19.73;;;;;;;18.66;100.00;102051.66;6253898;23;20003;-81
2023/10/09 10:15:28;;;;;;;30.67;20.23;;;;;;;18.62;100.00;102019.63;6246931;23;20004;-82
2023/10/09 10:18:03;;;;;;;24.20;19.27;;;;;;;18.82;100.00;102051.31;6240016;23;20095;-82
2023/10/09 10:20:31;;;;;;;27.25;20.60;;;;;;;18.68;100.00;102030.59;6245548;23;20024;-79
2023/10/09 10:23:20;;;;;;;25.63;20.10;;;;;;;18.81;100.00;102050.47;6245532;23;20361;-77
2023/10/09 10:25:49;;;;;;;27.05;19.92;;;;;;;18.88;100.00;102059.53;6244298;23;20013;-76
2023/10/09 10:28:28;;;;;;;26.35;19.75;;;;;;;18.91;100.00;102051.41;6246272;23;20027;-78
2023/10/09 10:30:55;;;;;;;30.83;20.27;;;;;;;18.99;100.00;102057.84;6246051;23;20012;-81
2023/10/09 10:33:22;;;;;;;23.45;18.73;;;;;;;19.07;100.00;102060.66;6244433;23;20008;-73
2023/10/09 10:35:52;;;;;;;24.38;17.67;;;;;;;19.16;100.00;102054.69;6244767;23;20036;-74
2023/10/09 10:38:38;;;;;;;23.45;17.10;;;;;;;19.20;100.00;102043.88;6246466;23;20179;-78
2023/10/09 10:41:16;;;;;;;24.42;16.85;;;;;;;19.39;100.00;102037.97;6247159;23;20426;-80
2023/10/09 10:46:23;;;;;;;20.80;14.75;;;;;;;19.51;100.00;102043.16;6257441;23;20062;-75
2023/10/09 10:48:58;;;;;;;23.83;15.40;;;;;;;19.49;100.00;102046.75;6247113;23;20004;-82
2023/10/09 10:51:34;;;;;;;24.20;15.32;;;;;;;19.47;100.00;102042.59;6246343;23;20461;-82
2023/10/09 10:54:26;;;;;;;22.67;14.40;;;;;;;19.45;100.00;102044.50;6247128;23;19999;-82
2023/10/09 10:56:51;;;;;;;22.17;15.13;;;;;;;19.42;100.00;102040.34;6246511;23;20513;-80
2023/10/09 10:59:23;;;;;;;21.48;13.50;;;;;;;19.33;100.00;102035.84;6247081;23;20042;-81
2023/10/09 11:02:22;;;;;;;23.10;14.43;;;;;;;19.35;100.00;102046.19;6246818;23;20003;-82
2023/10/09 11:04:47;;;;;;;20.75;12.77;;;;;;;19.36;100.00;102053.09;6246010;23;20004;-78
2023/10/09 11:07:15;;;;;;;18.25;12.63;;;;;;;19.34;100.00;102034.06;6246759;23;20000;-80
2023/10/09 11:15:37;;;;;;;20.60;12.88;;;;;;;19.56;100.00;102031.38;6246872;23;20008;-77
2023/10/09 11:18:07;;;;;;;19.38;13.15;;;;;;;19.78;100.00;102046.19;6240247;23;20016;-86
2023/10/09 11:20:53;;;;;;;20.77;13.20;;;;;;;19.76;100.00;102032.34;6216175;23;20079;-80
2023/10/09 11:23:29;;;;;;;17.40;12.13;;;;;;;19.90;100.00;102046.97;6239776;23;20473;-81
2023/10/09 11:26:20;;;;;;;21.02;13.20;;;;;;;19.87;100.00;102032.31;6216246;23;20347;-79
2023/10/09 11:28:48;;;;;;;22.15;13.48;;;;;;;20.02;100.00;102043.31;6215908;23;20013;-78
2023/10/09 11:31:18;;;;;;;18.83;13.75;;;;;;;19.92;100.00;102024.88;6214230;23;20028;-83
2023/10/09 11:33:48;;;;;;;17.58;12.18;;;;;;;20.13;100.00;102040.59;6216402;23;20449;-81
2023/10/09 11:36:15;;;;;;;19.08;12.93;;;;;;;20.16;99.96;102027.25;6215749;23;20008;-80
2023/10/09 11:38:45;;;;;;;21.05;13.15;;;;;;;20.33;99.34;102031.03;6213819;23;20056;-79
2023/10/09 11:41:23;;;;;;;17.77;12.48;;;;;;;20.49;98.85;102036.69;6215970;23;20079;-76
2023/10/09 11:43:54;;;;;;;22.08;12.27;;;;;;;20.57;97.47;102034.25;6216174;23;20327;-82
2023/10/09 11:46:39;;;;;;;;;;;;;;;20.79;97.33;102038.44;6214821;23;20012;-78
2023/10/09 11:49:25;;;;;;;18.05;10.82;;;;;;;20.64;96.47;102045.03;6215502;23;19920;-76
2023/10/09 11:54:56;;;;;;;17.10;9.87;;;;;;;20.46;98.34;102036.97;6124844;23;20010;-81
2023/10/09 11:57:30;;;;;;;17.05;9.48;;;;;;;20.52;97.50;102052.16;6099253;23;20272;-78
2023/10/09 11:59:59;;;;;;;17.52;9.70;;;;;;;20.50;97.62;102027.03;6124342;23;20089;-82
2023/10/09 12:02:25;;;;;;;17.77;10.40;;;;;;;20.46;96.22;102025.63;6124095;23;20061;-78
2023/10/09 12:04:51;;;;;;;13.07;9.32;;;;;;;20.59;96.90;102053.31;6123920;23;20010;-81
2023/10/09 12:07:20;;;;;;;14.75;9.30;;;;;;;20.45;97.10;102016.94;6123824;23;20010;-84
2023/10/09 12:09:47;;;;;;;15.32;8.52;;;;;;;20.60;97.29;102038.38;6123902;23;20500;-84
2023/10/09 12:12:13;;;;;;;13.80;8.93;;;;;;;20.56;97.22;102042.25;6121946;23;20010;-83
2023/10/09 12:14:39;;;;;;;16.38;9.13;;;;;;;20.26;98.22;101987.97;6124083;23;20348;-79
2023/10/09 12:17:06;;;;;;;13.50;8.68;;;;;;;20.43;97.00;102031.13;6124354;23;20389;-86
2023/10/09 12:19:35;;;;;;;14.40;8.60;;;;;;;20.48;97.23;102042.91;6123529;23;20014;-79
2023/10/09 12:22:03;;;;;;;13.50;8.23;;;;;;;20.51;97.92;102033.94;6123128;23;20008;-76
2023/10/09 12:24:30;;;;;;;17.25;9.00;;;;;;;20.55;96.82;102027.44;6123343;23;20034;-79
2023/10/09 12:26:56;;;;;;;13.25;8.60;;;;;;;20.52;96.23;102030.34;6123133;23;20332;-78
2023/10/09 12:29:22;;;;;;;13.95;8.05;;;;;;;20.45;97.55;102008.19;6168240;23;20043;-76
2023/10/09 12:31:47;;;;;;;13.27;8.20;;;;;;;20.40;97.19;102000.72;6185079;23;20080;-79
2023/10/09 12:34:16;;;;;;;13.57;8.70;;;;;;;20.44;97.66;102003.91;6185180;23;19997;-82
2023/10/09 12:36:49;;;;;;;13.98;8.02;;;;;;;20.45;98.23;101995.09;6185330;23;20076;-78
2023/10/09 12:39:18;;;;;;;12.85;8.15;;;;;;;20.59;98.23;102003.44;6185177;23;20080;-77
2023/10/09 12:41:46;;;;;;;13.32;7.47;;;;;;;20.65;96.25;102004.72;6185244;23;20005;-79
2023/10/09 12:44:14;;;;;;;13.55;8.15;;;;;;;20.71;97.36;102004.16;6207894;23;20009;-83
2023/10/09 12:46:51;;;;;;;12.82;8.25;;;;;;;20.81;96.45;102001.56;6185565;23;20339;-78
2023/10/09 12:49:24;;;;;;;14.23;7.70;;;;;;;20.75;96.64;101978.50;6208643;23;20328;-81
2023/10/09 12:51:52;;;;;;;14.05;7.88;;;;;;;20.87;95.75;101974.78;6184964;23;20064;-77
2023/10/09 12:54:20;;;;;;;13.43;7.97;;;;;;;20.97;95.45;101987.91;6185177;23;20005;-78
2023/10/09 12:56:48;;;;;;;13.15;7.47;;;;;;;20.98;93.30;101989.56;6184858;23;20059;-81
2023/10/09 12:59:18;;;;;;;13.13;7.45;;;;;;;21.01;93.32;101974.38;6208201;23;20005;-81
2023/10/09 13:01:45;;;;;;;;;;;;;;;21.21;92.82;101985.72;6184823;23;20009;-79
2023/10/09 13:04:22;;;;;;;13.77;6.93;;;;;;;21.11;90.81;101982.25;6185431;23;20338;-80
2023/10/09 13:06:51;;;;;;;13.20;7.70;;;;;;;21.00;90.33;101964.00;6183013;23;20016;-79
2023/10/09 13:09:42;;;;;;;11.90;7.47;;;;;;;21.14;91.94;101988.09;6184954;23;20008;-78
2023/10/09 13:12:07;;;;;;;11.32;7.55;;;;;;;21.02;92.85;101977.81;6185087;23;20001;-83
2023/10/09 13:14:34;;;;;;;13.98;7.82;;;;;;;20.84;93.88;101951.41;6184860;23;20005;-82
2023/10/09 13:16:59;;;;;;;12.52;7.68;;;;;;;20.88;92.52;101965.94;6203853;23;20137;-77
2023/10/09 13:19:25;;;;;;;12.40;7.20;;;;;;;20.79;90.42;101975.44;6245943;23;20040;-87
2023/10/09 13:21:51;;;;;;;12.50;7.40;;;;;;;20.79;90.45;102001.69;6246342;23;20008;-85
2023/10/09 13:24:16;;;;;;;13.13;7.45;;;;;;;20.64;91.28;101997.78;6245438;23;20066;-80
2023/10/09 13:26:46;;;;;;;11.70;7.22;;;;;;;20.47;91.42;101994.00;6246879;23;20054;-79
2023/10/09 13:29:13;;;;;;;14.05;8.00;;;;;;;20.32;92.66;101992.66;6256025;23;20000;-76
2023/10/09 13:31:46;;;;;;;16.05;7.78;;;;;;;20.22;93.57;101997.03;6250332;23;20001;-78